Adak Island, Alaska
Current Conditions -  °F | °C
As of 2:56 AM on Friday 31 Oct 2014 (Local Time) from PADK Reporting Station
Broken Clouds Broken Clouds  
Wind Chill: 32°   Ceiling: 2000
Heat Index: 43°   Visibility: 10mi
Dew Point: 36°   Wind: 32mph
Humidity: 76%   Direction: 250°WSW
Pressure: 29.31"   Gusts: 40mph
Location:  51.88°N, 176.65°W
Report Text: PADK 311156Z AUTO 25028G35KT 10SM BKN020 BKN024 BKN044 06/02 A2931 RMK AO1 10070 20060 52007
Loading
Personal Weather Stations






























Interactive Weather Map
Tropical Storm Tracking
New forecast layout! Learn more

10-Day Weather Forecast

Advertisements
Track Severe Weather on mobile